Time;durP1;ratioP1;P1;durP2;ratioP2;P2;SDS_P1;SDS_P2;PMS_P1;PMS_P2;Temp;Humidity;BMP_temperature;BMP_pressure;BME280_temperature;BME280_humidity;BME280_pressure;Samples;Min_cycle;Max_cycle;Signal;HPM_P1;HPM_P2
2021/03/24 00:00:58;;;;;;;36.78;21.17;;;22.00;33.10;;;;;;5075155;28;20516;-75
2021/03/24 00:03:24;;;;;;;39.47;21.80;;;22.00;33.70;;;;;;5054183;28;20123;-75
2021/03/24 00:05:50;;;;;;;36.78;21.45;;;22.00;33.10;;;;;;5075252;28;20151;-75
2021/03/24 00:08:16;;;;;;;38.85;23.33;;;22.00;33.00;;;;;;5039126;28;20032;-75
2021/03/24 00:10:42;;;;;;;38.67;21.98;;;22.00;33.00;;;;;;5074373;28;20472;-75
2021/03/24 00:13:07;;;;;;;38.35;22.27;;;22.00;33.00;;;;;;5056657;28;20040;-74
2021/03/24 00:15:36;;;;;;;42.65;22.50;;;22.00;33.00;;;;;;5056478;28;20492;-75
2021/03/24 00:18:03;;;;;;;37.15;21.35;;;22.00;33.00;;;;;;5042521;28;20056;-75
2021/03/24 00:20:30;;;;;;;39.13;21.83;;;22.00;33.00;;;;;;5019323;28;20037;-74
2021/03/24 00:22:57;;;;;;;47.25;24.10;;;22.00;33.00;;;;;;5049803;28;20024;-75
2021/03/24 00:25:22;;;;;;;36.28;21.58;;;21.90;33.00;;;;;;5057070;28;20483;-73
2021/03/24 00:27:49;;;;;;;43.60;24.40;;;21.90;33.00;;;;;;5075566;28;20056;-73
2021/03/24 00:30:23;;;;;;;40.13;22.98;;;21.90;33.00;;;;;;5040959;28;20055;-76
2021/03/24 00:32:51;;;;;;;44.13;23.70;;;21.90;33.00;;;;;;5062405;28;20522;-75
2021/03/24 00:35:17;;;;;;;39.22;22.73;;;21.90;33.00;;;;;;5053470;28;20044;-77
2021/03/24 00:37:43;;;;;;;39.50;22.02;;;21.80;33.00;;;;;;5038870;28;20028;-76
2021/03/24 00:40:11;;;;;;;41.40;22.33;;;21.80;33.00;;;;;;5055336;28;20059;-76
2021/03/24 00:42:53;;;;;;;37.80;21.52;;;21.80;33.10;;;;;;5049950;28;20752;-76
2021/03/24 00:45:18;;;;;;;41.25;22.52;;;21.80;33.10;;;;;;5047310;28;20055;-76
2021/03/24 00:47:44;;;;;;;36.88;22.17;;;21.80;33.10;;;;;;5057243;28;20052;-76
2021/03/24 00:50:16;;;;;;;37.22;20.38;;;21.80;33.10;;;;;;5054327;28;20033;-75
2021/03/24 00:52:42;;;;;;;46.25;23.70;;;21.80;33.10;;;;;;5056794;28;20380;-75
2021/03/24 00:55:08;;;;;;;39.75;22.90;;;21.80;33.10;;;;;;5047059;28;20044;-77
2021/03/24 00:57:34;;;;;;;38.17;20.65;;;21.80;33.20;;;;;;5054828;28;20025;-76
2021/03/24 01:00:00;;;;;;;36.13;21.25;;;21.80;33.20;;;;;;5055749;28;20024;-75
2021/03/24 01:02:25;;;;;;;38.40;22.67;;;21.70;33.10;;;;;;5072039;28;20788;-75
2021/03/24 01:04:51;;;;;;;39.92;23.13;;;21.70;33.20;;;;;;5078433;28;20111;-75
2021/03/24 01:07:16;;;;;;;38.30;21.20;;;21.70;33.10;;;;;;5048303;28;20076;-75
2021/03/24 01:09:42;;;;;;;37.88;20.77;;;21.70;33.20;;;;;;5072232;28;20032;-75
2021/03/24 01:12:08;;;;;;;42.83;23.60;;;21.70;33.20;;;;;;5072624;28;20511;-75
2021/03/24 01:14:34;;;;;;;42.67;23.95;;;21.70;33.20;;;;;;5073564;28;20024;-75
2021/03/24 01:16:59;;;;;;;38.83;20.67;;;21.70;33.20;;;;;;5054379;28;20016;-75
2021/03/24 01:19:49;;;;;;;38.90;20.92;;;21.70;33.20;;;;;;5072943;28;20424;-74
2021/03/24 01:22:15;;;;;;;40.47;20.83;;;21.70;33.20;;;;;;5054653;28;20116;-75
2021/03/24 01:24:41;;;;;;;42.15;22.13;;;21.60;33.20;;;;;;5073318;28;20060;-74
2021/03/24 01:27:07;;;;;;;42.85;23.42;;;21.60;33.80;;;;;;5071562;28;20025;-74
2021/03/24 01:29:32;;;;;;;46.40;24.42;;;21.60;33.20;;;;;;5055187;28;20036;-74
2021/03/24 01:31:58;;;;;;;38.50;21.55;;;21.60;33.20;;;;;;5052937;28;20488;-75
2021/03/24 01:34:23;;;;;;;39.67;22.23;;;21.60;33.30;;;;;;5034765;28;20480;-74
2021/03/24 01:36:49;;;;;;;38.28;21.10;;;21.60;33.20;;;;;;5049915;28;20047;-74
2021/03/24 01:39:14;;;;;;;44.33;23.10;;;21.50;33.10;;;;;;5061696;28;20077;-74
2021/03/24 01:41:40;;;;;;;43.15;23.15;;;21.60;33.90;;;;;;5068136;28;20035;-74
2021/03/24 01:44:06;;;;;;;37.72;20.80;;;21.60;33.10;;;;;;5043703;28;20047;-74
2021/03/24 01:46:37;;;;;;;43.92;22.33;;;21.60;33.10;;;;;;5067933;28;20384;-74
2021/03/24 01:49:12;;;;;;;38.00;21.35;;;21.60;33.10;;;;;;5051325;28;20036;-74
2021/03/24 01:52:04;;;;;;;35.03;19.83;;;21.60;33.00;;;;;;5073127;28;20105;-74
2021/03/24 01:54:40;;;;;;;37.25;20.90;;;21.60;33.00;;;;;;5069694;28;20055;-74
2021/03/24 01:57:25;;;;;;;35.67;18.90;;;21.60;33.00;;;;;;5074235;28;20487;-74
2021/03/24 01:59:54;;;;;;;41.85;20.67;;;21.60;33.00;;;;;;5074374;28;20020;-74
2021/03/24 02:02:32;;;;;;;37.83;19.70;;;21.60;33.00;;;;;;5073384;28;20102;-73
2021/03/24 02:04:57;;;;;;;41.35;21.90;;;21.60;33.00;;;;;;5056147;28;20530;-74
2021/03/24 02:07:39;;;;;;;39.30;21.92;;;21.60;33.00;;;;;;5091524;28;20031;-74
2021/03/24 02:10:13;;;;;;;43.55;22.45;;;21.60;33.00;;;;;;5076026;28;20480;-73
2021/03/24 02:13:19;;;;;;;39.15;21.83;;;21.60;33.00;;;;;;5051662;28;21715;-74
2021/03/24 02:15:59;;;;;;;44.38;22.83;;;21.50;33.00;;;;;;5066508;28;20023;-74
2021/03/24 02:18:25;;;;;;;33.25;18.88;;;21.50;33.00;;;;;;5063819;28;20066;-74
2021/03/24 02:21:24;;;;;;;42.63;21.65;;;21.50;33.00;;;;;;5069770;28;20040;-74
2021/03/24 02:24:21;;;;;;;43.70;20.65;;;21.50;33.00;;;;;;5011210;28;20439;-74
2021/03/24 02:27:12;;;;;;;39.65;21.45;;;21.50;33.00;;;;;;4993077;28;20061;-74
2021/03/24 02:29:39;;;;;;;47.10;21.98;;;21.50;33.00;;;;;;4990679;28;20113;-75
2021/03/24 02:32:06;;;;;;;46.30;22.92;;;21.50;33.70;;;;;;4993598;28;20126;-75
2021/03/24 02:34:32;;;;;;;45.20;23.40;;;21.50;33.00;;;;;;4993282;28;20568;-75
2021/03/24 02:36:57;;;;;;;45.20;22.73;;;21.50;33.00;;;;;;4993162;28;20109;-74
2021/03/24 02:39:42;;;;;;;43.50;22.63;;;21.50;33.00;;;;;;4989923;28;20057;-74
2021/03/24 02:42:08;;;;;;;43.58;23.45;;;21.40;33.00;;;;;;4973196;28;20113;-74
2021/03/24 02:44:34;;;;;;;48.75;24.67;;;21.40;33.00;;;;;;4986977;28;20069;-74
2021/03/24 02:47:01;;;;;;;43.90;23.00;;;21.40;33.00;;;;;;4974325;28;20109;-74
2021/03/24 02:49:26;;;;;;;43.95;23.98;;;21.40;33.00;;;;;;4977538;28;20042;-74
2021/03/24 02:51:52;;;;;;;51.70;26.10;;;21.40;33.00;;;;;;4988512;28;20037;-74
2021/03/24 02:54:20;;;;;;;43.13;23.40;;;21.40;33.00;;;;;;4976800;28;20038;-74
2021/03/24 02:56:45;;;;;;;44.45;23.48;;;21.40;33.00;;;;;;4998602;28;20130;-74
2021/03/24 02:59:11;;;;;;;45.95;23.20;;;21.40;33.00;;;;;;4979882;28;20046;-74
2021/03/24 03:01:48;;;;;;;47.50;24.73;;;21.40;33.10;;;;;;5051533;28;20036;-74
2021/03/24 03:04:21;;;;;;;48.15;22.52;;;21.30;33.00;;;;;;5071070;28;20575;-73
2021/03/24 03:06:46;;;;;;;46.55;24.00;;;21.30;33.00;;;;;;5064734;28;20095;-74
2021/03/24 03:09:40;;;;;;;43.03;23.08;;;21.30;33.00;;;;;;5070345;28;20560;-74
2021/03/24 03:15:33;;;;;;;50.97;23.85;;;21.30;33.00;;;;;;5012535;28;20036;-74
2021/03/24 03:18:11;;;;;;;47.03;25.83;;;21.30;33.10;;;;;;5006606;28;20029;-75
2021/03/24 03:20:44;;;;;;;44.58;22.45;;;21.30;33.10;;;;;;5013150;28;20079;-75
2021/03/24 03:23:15;;;;;;;41.50;22.95;;;21.30;33.20;;;;;;4996512;28;20144;-74
2021/03/24 03:25:42;;;;;;;44.03;22.33;;;21.20;33.10;;;;;;4995876;28;20033;-75
2021/03/24 03:28:13;;;;;;;43.80;21.80;;;21.20;33.10;;;;;;5023102;28;20120;-74
2021/03/24 03:30:39;;;;;;;51.67;25.33;;;21.20;33.10;;;;;;4995569;28;20512;-75
2021/03/24 03:33:07;;;;;;;48.90;24.13;;;21.20;33.10;;;;;;5009005;28;20045;-74
2021/03/24 03:35:33;;;;;;;44.60;25.10;;;21.20;33.10;;;;;;5013125;28;20079;-74
2021/03/24 03:38:00;;;;;;;45.15;23.15;;;21.20;33.10;;;;;;4995855;28;20026;-74
2021/03/24 03:40:35;;;;;;;46.58;25.35;;;21.20;33.10;;;;;;5013661;28;20085;-74
2021/03/24 03:43:05;;;;;;;;;;;21.20;33.10;;;;;;5010424;28;20137;-74
2021/03/24 03:45:30;;;;;;;53.03;25.58;;;21.20;33.10;;;;;;5011589;28;19995;-75
2021/03/24 03:47:56;;;;;;;44.63;22.80;;;21.20;33.10;;;;;;5003209;28;20133;-74
2021/03/24 03:50:24;;;;;;;47.03;23.58;;;21.30;33.10;;;;;;5072572;28;20039;-74
2021/03/24 03:52:56;;;;;;;41.42;22.00;;;21.30;33.10;;;;;;5074776;28;20028;-75
2021/03/24 03:55:36;;;;;;;47.17;24.50;;;21.30;33.00;;;;;;5058771;28;20545;-76
2021/03/24 03:58:17;;;;;;;44.22;22.33;;;21.20;33.00;;;;;;5077480;28;20028;-76
2021/03/24 04:00:50;;;;;;;42.92;23.63;;;21.20;33.00;;;;;;5092980;28;20021;-74
2021/03/24 04:03:17;;;;;;;47.10;24.17;;;21.20;32.90;;;;;;5058998;28;20506;-74
2021/03/24 04:05:45;;;;;;;47.20;25.00;;;21.20;33.00;;;;;;5066238;28;20772;-74
2021/03/24 04:08:22;;;;;;;39.67;23.05;;;21.20;33.00;;;;;;5062893;28;20082;-74
2021/03/24 04:10:52;;;;;;;40.85;22.83;;;21.20;33.00;;;;;;5059161;28;20115;-74
2021/03/24 04:13:18;;;;;;;51.20;27.83;;;21.20;32.90;;;;;;5059911;28;20047;-74
2021/03/24 04:15:44;;;;;;;47.08;23.58;;;21.20;33.00;;;;;;5058458;28;20125;-74
2021/03/24 04:18:11;;;;;;;49.35;26.60;;;21.20;32.90;;;;;;5064568;28;20070;-74
2021/03/24 04:20:37;;;;;;;49.05;24.83;;;21.20;32.90;;;;;;5059116;28;20028;-74
2021/03/24 04:23:04;;;;;;;50.00;26.70;;;21.20;32.90;;;;;;5058920;28;20044;-74
2021/03/24 04:25:55;;;;;;;45.75;22.85;;;21.20;33.00;;;;;;5059200;28;20050;-74
2021/03/24 04:28:21;;;;;;;47.90;25.90;;;21.20;33.00;;;;;;5072860;28;20483;-75
2021/03/24 04:30:53;;;;;;;41.90;24.15;;;21.10;32.90;;;;;;5062981;28;20050;-74
2021/03/24 04:33:19;;;;;;;52.45;27.00;;;21.10;33.00;;;;;;5059234;28;20059;-75
2021/03/24 04:35:45;;;;;;;45.88;26.02;;;21.10;33.00;;;;;;5044534;28;20055;-74
2021/03/24 04:38:19;;;;;;;46.08;23.23;;;21.10;32.90;;;;;;5092247;28;20028;-75
2021/03/24 04:40:56;;;;;;;45.15;24.85;;;21.10;33.00;;;;;;5062476;28;20012;-75
2021/03/24 04:43:24;;;;;;;53.13;26.00;;;21.10;33.00;;;;;;5055890;28;20032;-75
2021/03/24 04:45:53;;;;;;;42.50;25.08;;;21.10;33.00;;;;;;5059367;28;20070;-75
2021/03/24 04:48:26;;;;;;;44.95;24.40;;;21.10;33.10;;;;;;5075027;28;20060;-75
2021/03/24 04:50:55;;;;;;;44.78;23.23;;;21.00;33.10;;;;;;5075679;28;20020;-75
2021/03/24 04:53:21;;;;;;;45.20;23.85;;;21.00;33.10;;;;;;5078160;28;20063;-75
2021/03/24 04:55:46;;;;;;;48.22;23.70;;;21.00;33.10;;;;;;5058662;28;20055;-74
2021/03/24 04:58:37;;;;;;;53.60;25.13;;;21.00;33.10;;;;;;5075401;28;20110;-75
2021/03/24 05:01:17;;;;;;;0.82;0.45;;;21.00;33.10;;;;;;5076926;28;20028;-75
2021/03/24 05:03:44;;;;;;;1.52;1.13;;;21.00;33.20;;;;;;5078107;28;20094;-74
2021/03/24 05:06:22;;;;;;;0.60;0.45;;;20.90;33.10;;;;;;5057688;28;20055;-74
2021/03/24 05:08:47;;;;;;;3.92;1.48;;;21.00;33.30;;;;;;5075091;28;20027;-74
2021/03/24 05:11:38;;;;;;;0.75;0.47;;;20.90;33.30;;;;;;5059047;28;20454;-73
2021/03/24 05:14:30;;;;;;;1.27;0.80;;;20.90;33.40;;;;;;5083787;28;20484;-74
2021/03/24 05:17:05;;;;;;;0.75;0.75;;;20.90;33.50;;;;;;5075284;28;20020;-73
2021/03/24 05:19:31;;;;;;;1.75;0.70;;;21.00;33.50;;;;;;5074277;28;20048;-73
2021/03/24 05:22:17;;;;;;;1.02;0.68;;;21.00;33.50;;;;;;5094352;28;20113;-74
2021/03/24 05:25:00;;;;;;;1.25;0.65;;;21.10;33.50;;;;;;5073986;28;20360;-73
2021/03/24 05:27:33;;;;;;;1.75;0.73;;;21.20;33.50;;;;;;5074391;28;20057;-74
2021/03/24 05:30:03;;;;;;;0.68;0.68;;;21.30;33.50;;;;;;5059447;28;20077;-73
2021/03/24 05:32:34;;;;;;;0.55;0.32;;;21.30;33.30;;;;;;5058054;28;20035;-73
2021/03/24 05:34:59;;;;;;;0.68;0.50;;;21.40;33.20;;;;;;5077979;28;20043;-73
2021/03/24 05:37:29;;;;;;;0.63;0.40;;;21.40;33.20;;;;;;5054776;28;20044;-74
2021/03/24 05:40:08;;;;;;;1.35;0.73;;;21.50;33.10;;;;;;5073784;28;20170;-74
2021/03/24 05:42:39;;;;;;;2.85;0.43;;;21.50;33.10;;;;;;5054883;28;20484;-74
2021/03/24 05:45:32;;;;;;;1.27;0.52;;;21.50;33.00;;;;;;5072382;28;20026;-74
2021/03/24 05:48:07;;;;;;;1.98;1.02;;;21.50;33.00;;;;;;5073842;28;20056;-74
2021/03/24 05:50:42;;;;;;;1.25;1.15;;;21.50;33.00;;;;;;5073560;28;20115;-74
2021/03/24 05:53:26;;;;;;;2.50;0.73;;;21.50;33.00;;;;;;5076917;28;20063;-74
2021/03/24 05:56:14;;;;;;;2.35;0.63;;;21.50;33.00;;;;;;5093018;28;20328;-73
2021/03/24 05:59:20;;;;;;;1.23;0.82;;;21.60;33.00;;;;;;5072145;28;20031;-74
2021/03/24 06:01:54;;;;;;;3.22;1.23;;;21.60;33.00;;;;;;5074230;28;20020;-72
2021/03/24 06:04:36;;;;;;;0.73;0.70;;;21.60;33.00;;;;;;5056893;28;20028;-73
2021/03/24 06:07:27;;;;;;;0.75;0.50;;;21.60;33.00;;;;;;5058840;28;20036;-73
2021/03/24 06:10:20;;;;;;;1.13;0.85;;;21.60;33.00;;;;;;5074084;28;20028;-73
2021/03/24 06:13:20;;;;;;;0.73;0.68;;;21.60;33.00;;;;;;5073632;28;20107;-73
2021/03/24 06:16:04;;;;;;;2.67;0.95;;;21.60;33.00;;;;;;5096263;28;20098;-73
2021/03/24 06:18:32;;;;;;;1.98;0.80;;;21.60;33.10;;;;;;5092012;28;20051;-73
2021/03/24 06:21:07;;;;;;;8.07;0.88;;;21.60;33.10;;;;;;5077244;28;20020;-73
2021/03/24 06:24:02;;;;;;;2.40;1.08;;;21.60;33.10;;;;;;5075362;28;20647;-73
2021/03/24 06:26:34;;;;;;;0.60;0.52;;;21.60;33.30;;;;;;5060104;28;20063;-73
2021/03/24 06:29:07;;;;;;;1.27;0.95;;;21.60;33.20;;;;;;5092278;28;20467;-73
2021/03/24 06:32:00;;;;;;;0.95;0.95;;;21.60;33.20;;;;;;5057212;28;20081;-73
2021/03/24 06:34:52;;;;;;;3.03;0.82;;;21.60;33.20;;;;;;5086356;28;20029;-73
2021/03/24 06:37:45;;;;;;;2.63;1.20;;;21.60;33.30;;;;;;5080604;28;20113;-73
2021/03/24 06:40:42;;;;;;;2.10;0.57;;;21.60;33.30;;;;;;5093154;28;20466;-73
2021/03/24 06:43:45;;;;;;;0.63;0.63;;;21.60;33.30;;;;;;5073872;28;20089;-73
2021/03/24 06:46:42;;;;;;;1.08;0.88;;;21.70;33.30;;;;;;5091740;28;20038;-73
2021/03/24 06:49:15;;;;;;;0.75;0.43;;;21.70;33.20;;;;;;5074224;28;20418;-73
2021/03/24 06:52:02;;;;;;;3.80;0.95;;;21.70;33.20;;;;;;5073368;28;20028;-73
2021/03/24 06:55:11;;;;;;;4.68;1.45;;;21.70;33.10;;;;;;5091216;28;20039;-74
2021/03/24 06:58:31;;;;;;;3.25;0.85;;;21.70;33.20;;;;;;5051492;28;20103;-73
2021/03/24 07:01:45;;;;;;;2.35;1.25;;;21.80;33.10;;;;;;4998249;28;20029;-74
2021/03/24 07:04:48;;;;;;;1.90;0.52;;;21.80;33.10;;;;;;4910774;29;20171;-74
2021/03/24 07:08:00;;;;;;;2.63;1.17;;;21.80;33.20;;;;;;4912802;29;20575;-74
2021/03/24 07:10:38;;;;;;;0.82;0.68;;;21.80;33.10;;;;;;4821108;29;20057;-74
2021/03/24 07:13:12;;;;;;;5.40;0.57;;;21.90;33.20;;;;;;4831053;29;20046;-73
2021/03/24 07:16:11;;;;;;;0.57;0.57;;;22.00;33.10;;;;;;4820821;29;20039;-74
2021/03/24 07:22:20;;;;;;;3.38;0.93;;;22.10;32.90;;;;;;4830153;29;20507;-74
2021/03/24 07:25:04;;;;;;;0.55;0.52;;;22.10;32.80;;;;;;4841610;29;20125;-74
2021/03/24 07:27:44;;;;;;;2.63;0.68;;;22.20;32.80;;;;;;4824651;29;20496;-74
2021/03/24 07:30:31;;;;;;;2.55;0.75;;;22.30;32.70;;;;;;4847340;29;20046;-74
2021/03/24 07:33:09;;;;;;;0.80;0.80;;;22.30;32.60;;;;;;4841347;29;20042;-74
2021/03/24 07:35:55;;;;;;;2.70;0.70;;;22.30;32.60;;;;;;4859372;29;20036;-74
2021/03/24 07:38:35;;;;;;;1.98;1.00;;;22.40;32.70;;;;;;4930016;28;20027;-74
2021/03/24 07:41:19;;;;;;;1.75;0.82;;;22.40;32.60;;;;;;4982791;28;20073;-74
2021/03/24 07:44:11;;;;;;;0.93;0.50;;;22.50;32.50;;;;;;4970489;28;20411;-74
2021/03/24 07:46:45;;;;;;;2.22;1.15;;;22.60;32.50;;;;;;5030374;28;20036;-75
2021/03/24 07:49:36;;;;;;;0.90;0.57;;;22.60;32.50;;;;;;5095459;28;20024;-74
2021/03/24 07:52:18;;;;;;;2.72;0.95;;;22.60;32.50;;;;;;5083618;28;20040;-75
2021/03/24 07:54:49;;;;;;;0.73;0.65;;;22.70;32.50;;;;;;5072069;28;20039;-74
2021/03/24 07:57:35;;;;;;;1.40;0.95;;;22.70;32.40;;;;;;5093400;28;20574;-74
2021/03/24 08:00:09;;;;;;;1.27;0.95;;;22.80;32.30;;;;;;5070764;28;20475;-74
2021/03/24 08:02:47;;;;;;;3.50;1.40;;;22.80;32.20;;;;;;5060290;28;20030;-74
2021/03/24 08:05:31;;;;;;;0.28;0.28;;;22.80;32.10;;;;;;5088789;28;20074;-74
2021/03/24 08:11:41;;;;;;;1.98;1.17;;;22.90;32.00;;;;;;5034771;28;20059;-74
2021/03/24 08:14:31;;;;;;;2.50;1.52;;;23.00;32.00;;;;;;5025106;28;20187;-74
2021/03/24 08:17:41;;;;;;;1.40;0.90;;;23.00;32.10;;;;;;5042864;28;20388;-74
2021/03/24 08:20:38;;;;;;;3.15;1.10;;;23.00;32.10;;;;;;5024168;28;20049;-74
2021/03/24 08:23:29;;;;;;;1.65;0.73;;;23.00;32.10;;;;;;4961532;28;20074;-74
2021/03/24 08:26:12;;;;;;;0.65;0.45;;;23.00;32.10;;;;;;4946978;28;20039;-74
2021/03/24 08:28:54;;;;;;;0.55;0.30;;;23.00;32.20;;;;;;4967886;28;20070;-74
2021/03/24 08:31:25;;;;;;;2.03;1.15;;;23.00;32.20;;;;;;4953303;28;20050;-73
2021/03/24 08:34:05;;;;;;;1.55;0.47;;;23.00;32.10;;;;;;4988240;28;20041;-74
2021/03/24 08:36:49;;;;;;;1.75;0.93;;;23.00;32.00;;;;;;4966706;28;20570;-74
2021/03/24 08:39:51;;;;;;;5.60;1.17;;;23.10;32.00;;;;;;4981858;28;20023;-73
2021/03/24 08:42:36;;;;;;;1.00;0.55;;;23.10;31.80;;;;;;4983512;28;20066;-74
2021/03/24 08:45:12;;;;;;;2.33;0.90;;;23.20;31.80;;;;;;4990279;28;20104;-74
2021/03/24 08:47:41;;;;;;;1.20;0.65;;;23.20;31.90;;;;;;5006797;28;20046;-74
2021/03/24 08:50:33;;;;;;;1.92;1.73;;;23.20;31.90;;;;;;4977112;28;20394;-74
2021/03/24 08:53:20;;;;;;;2.08;1.23;;;23.20;31.80;;;;;;4959625;28;20150;-74
2021/03/24 08:56:16;;;;;;;3.60;1.70;;;23.30;31.80;;;;;;4940524;28;20041;-73
2021/03/24 08:59:07;;;;;;;1.65;1.00;;;23.30;31.70;;;;;;4925721;29;20035;-76
2021/03/24 09:02:01;;;;;;;0.60;0.55;;;23.30;31.70;;;;;;4945634;28;21341;-75
2021/03/24 09:04:38;;;;;;;2.05;0.60;;;23.30;31.80;;;;;;4927141;29;20075;-74
2021/03/24 09:07:08;;;;;;;1.25;1.15;;;23.40;31.90;;;;;;4921873;29;20456;-75
2021/03/24 09:09:43;;;;;;;4.65;1.05;;;23.40;31.90;;;;;;4917698;29;20705;-74
2021/03/24 09:12:16;;;;;;;3.45;1.42;;;23.40;31.80;;;;;;4934681;29;20507;-74
2021/03/24 09:14:43;;;;;;;8.40;2.85;;;23.50;31.70;;;;;;4916452;29;20476;-74
2021/03/24 09:17:33;;;;;;;6.85;1.40;;;23.50;31.30;;;;;;4938743;29;20049;-75
2021/03/24 09:20:26;;;;;;;5.13;1.58;;;23.50;31.10;;;;;;4947502;28;20222;-75
2021/03/24 09:23:14;;;;;;;2.08;1.85;;;23.50;31.20;;;;;;4950637;28;20043;-75
2021/03/24 09:25:47;;;;;;;1.25;0.98;;;23.60;31.30;;;;;;4953635;28;20051;-75
2021/03/24 09:28:40;;;;;;;3.10;1.85;;;23.60;31.40;;;;;;4950542;28;20031;-75
2021/03/24 09:31:26;;;;;;;6.25;1.30;;;23.70;31.40;;;;;;5008517;28;20038;-75
2021/03/24 09:33:57;;;;;;;;;;;23.80;31.20;;;;;;4955371;28;20053;-76
2021/03/24 09:36:35;;;;;;;9.02;2.15;;;23.80;31.60;;;;;;4969577;28;19933;-76
2021/03/24 09:39:06;;;;;;;1.23;1.13;;;23.90;31.00;;;;;;4984069;28;20510;-76
2021/03/24 09:41:45;;;;;;;1.25;0.93;;;23.90;31.00;;;;;;5027999;28;20119;-76
2021/03/24 09:44:30;;;;;;;2.40;1.20;;;24.00;31.00;;;;;;5013003;28;20148;-76
2021/03/24 09:46:56;;;;;;;2.63;1.10;;;24.00;31.00;;;;;;5028912;28;20040;-76
2021/03/24 09:49:29;;;;;;;5.00;1.67;;;24.00;31.00;;;;;;5013111;28;20025;-76
2021/03/24 09:52:21;;;;;;;2.22;0.77;;;24.00;31.10;;;;;;5022105;28;20033;-75
2021/03/24 09:55:06;;;;;;;3.10;0.80;;;24.00;31.10;;;;;;5034520;28;20481;-76
2021/03/24 09:57:57;;;;;;;2.85;1.20;;;24.10;31.10;;;;;;5031701;28;20090;-76
2021/03/24 10:00:22;;;;;;;3.00;1.60;;;24.10;31.10;;;;;;4953176;28;20032;-76
2021/03/24 10:03:21;;;;;;;1.25;0.40;;;24.10;31.00;;;;;;4936033;28;20062;-76
2021/03/24 10:05:53;;;;;;;2.05;1.23;;;24.20;31.00;;;;;;4935018;29;20496;-75
2021/03/24 10:08:30;;;;;;;3.33;1.35;;;24.20;30.90;;;;;;4937346;28;20118;-75
2021/03/24 10:11:06;;;;;;;4.50;1.63;;;24.30;30.70;;;;;;4958277;28;20049;-75
2021/03/24 10:13:35;;;;;;;1.75;1.17;;;24.30;30.60;;;;;;4991591;28;20095;-76
2021/03/24 10:16:13;;;;;;;2.58;1.55;;;24.40;30.60;;;;;;4974561;28;20073;-75
2021/03/24 10:19:03;;;;;;;3.92;1.80;;;24.40;31.20;;;;;;4989493;28;20049;-75
2021/03/24 10:21:39;;;;;;;1.58;0.98;;;24.50;30.60;;;;;;4981572;28;20510;-76
2021/03/24 10:24:15;;;;;;;2.60;1.38;;;24.50;30.60;;;;;;4984910;28;20038;-76
2021/03/24 10:27:02;;;;;;;1.15;1.05;;;24.60;30.50;;;;;;4993276;28;20026;-74
2021/03/24 10:29:47;;;;;;;3.95;1.85;;;24.60;30.20;;;;;;4988448;28;20026;-73
2021/03/24 10:32:38;;;;;;;7.47;2.10;;;24.70;30.20;;;;;;4988784;28;20116;-76
2021/03/24 10:35:15;;;;;;;7.93;1.88;;;24.80;30.00;;;;;;4988677;28;20164;-76
2021/03/24 10:37:43;;;;;;;6.65;2.20;;;24.80;30.00;;;;;;5046295;28;20483;-75
2021/03/24 10:40:15;;;;;;;3.17;1.52;;;24.80;29.80;;;;;;5092568;28;20055;-75
2021/03/24 10:42:54;;;;;;;2.67;1.58;;;24.90;29.70;;;;;;5088188;28;20078;-76
2021/03/24 10:45:27;;;;;;;1.55;1.05;;;24.90;29.60;;;;;;5073960;28;20039;-76
2021/03/24 10:48:13;;;;;;;2.55;0.98;;;25.00;29.60;;;;;;5067136;28;20395;-75
2021/03/24 10:50:44;;;;;;;;;;;25.00;29.70;;;;;;5091330;28;20487;-75
2021/03/24 10:53:23;;;;;;;5.53;1.63;;;25.10;29.70;;;;;;5070181;28;19986;-75
2021/03/24 10:56:27;;;;;;;1.27;1.13;;;25.10;29.50;;;;;;5079077;28;20501;-76
2021/03/24 10:59:11;;;;;;;3.40;1.58;;;25.10;29.60;;;;;;5090992;28;20024;-75
2021/03/24 11:01:55;;;;;;;4.30;1.30;;;25.20;29.70;;;;;;5087828;28;20029;-75
2021/03/24 11:04:35;;;;;;;5.72;2.13;;;25.20;29.60;;;;;;5055394;28;20060;-76
2021/03/24 11:07:13;;;;;;;6.85;1.08;;;25.30;29.60;;;;;;5094921;28;20028;-76
2021/03/24 11:09:50;;;;;;;8.40;1.00;;;25.30;29.30;;;;;;5087260;28;20020;-75
2021/03/24 11:12:20;;;;;;;3.13;0.98;;;25.40;29.20;;;;;;5077697;28;20032;-75
2021/03/24 11:15:02;;;;;;;1.60;0.55;;;25.40;29.30;;;;;;5060887;28;20024;-75
2021/03/24 11:17:33;;;;;;;2.58;1.13;;;25.50;29.40;;;;;;5073001;28;20094;-75
2021/03/24 11:20:03;;;;;;;1.00;0.90;;;25.50;29.20;;;;;;5067213;28;20027;-75
2021/03/24 11:22:51;;;;;;;2.20;1.10;;;25.60;29.20;;;;;;5077044;28;20031;-75
2021/03/24 11:25:37;;;;;;;1.70;0.82;;;25.60;29.10;;;;;;5076233;28;20099;-76
2021/03/24 11:28:21;;;;;;;;;;;25.70;29.30;;;;;;5083253;28;20407;-75
2021/03/24 11:31:05;;;;;;;2.45;1.33;;;25.80;28.90;;;;;;5095827;28;20429;-76
2021/03/24 11:33:38;;;;;;;2.38;0.95;;;25.80;28.90;;;;;;5061870;28;20024;-76
2021/03/24 11:36:18;;;;;;;0.50;0.50;;;25.80;28.90;;;;;;5089013;28;20025;-76
2021/03/24 11:39:14;;;;;;;5.40;1.38;;;25.80;28.90;;;;;;5071655;28;20012;-76
2021/03/24 11:41:40;;;;;;;2.08;1.02;;;25.90;28.50;;;;;;5062550;28;20123;-76
2021/03/24 11:44:07;;;;;;;3.53;0.93;;;25.90;28.20;;;;;;5060294;28;20123;-75
2021/03/24 11:46:40;;;;;;;2.35;1.08;;;26.00;28.40;;;;;;5093735;28;20110;-75
2021/03/24 11:49:33;;;;;;;1.77;0.75;;;26.00;28.50;;;;;;5057791;28;20023;-75
2021/03/24 11:52:22;;;;;;;1.15;0.57;;;26.10;28.20;;;;;;5091202;28;20114;-75
2021/03/24 11:55:02;;;;;;;2.92;1.17;;;26.10;28.30;;;;;;5027414;28;20037;-75
2021/03/24 11:57:37;;;;;;;1.52;1.20;;;26.20;28.00;;;;;;5014078;28;20029;-76
2021/03/24 12:00:14;;;;;;;5.47;1.50;;;26.20;28.20;;;;;;5015362;28;20432;-75
2021/03/24 12:02:53;;;;;;;2.95;1.20;;;26.20;27.80;;;;;;5027945;28;20030;-75
2021/03/24 12:05:24;;;;;;;5.47;1.20;;;26.30;28.10;;;;;;5010664;28;20109;-75
2021/03/24 12:08:13;;;;;;;0.65;0.65;;;26.30;28.10;;;;;;5011992;28;20116;-76
2021/03/24 12:10:42;;;;;;;1.60;1.25;;;26.40;28.40;;;;;;5003922;28;20054;-76
2021/03/24 12:13:13;;;;;;;0.20;0.20;;;26.40;28.00;;;;;;4982845;28;20132;-76
2021/03/24 12:16:10;;;;;;;1.40;1.05;;;26.40;28.10;;;;;;5030851;28;20445;-75
2021/03/24 12:19:00;;;;;;;1.13;0.63;;;26.40;28.20;;;;;;5012069;28;20037;-76
2021/03/24 12:21:29;;;;;;;4.55;0.85;;;26.40;28.20;;;;;;5017822;28;20091;-76
2021/03/24 12:23:58;;;;;;;1.33;0.98;;;26.50;28.70;;;;;;4996722;28;20076;-76
2021/03/24 12:26:36;;;;;;;1.85;0.70;;;26.50;28.00;;;;;;5014504;28;20029;-76
2021/03/24 12:29:11;;;;;;;1.35;0.88;;;26.60;27.70;;;;;;5012282;28;20152;-75
2021/03/24 12:32:07;;;;;;;0.75;0.75;;;26.60;27.90;;;;;;5032350;28;20048;-75
2021/03/24 12:34:40;;;;;;;0.65;0.45;;;26.70;27.80;;;;;;5018275;28;20034;-76
2021/03/24 12:37:06;;;;;;;0.40;0.40;;;26.70;27.60;;;;;;4980045;28;20018;-76
2021/03/24 12:39:39;;;;;;;2.67;1.52;;;26.80;27.60;;;;;;4975949;28;20038;-75
2021/03/24 12:42:21;;;;;;;1.20;0.50;;;26.90;27.50;;;;;;4979191;28;20537;-75
2021/03/24 12:44:47;;;;;;;4.57;1.08;;;26.90;27.60;;;;;;5013782;28;20048;-76
2021/03/24 12:47:30;;;;;;;5.32;1.20;;;27.00;27.40;;;;;;4999544;28;20046;-76
2021/03/24 12:50:08;;;;;;;0.75;0.63;;;27.00;27.30;;;;;;5015226;28;20067;-76
2021/03/24 12:52:41;;;;;;;1.55;0.68;;;27.10;27.40;;;;;;5007485;28;20391;-75
2021/03/24 12:55:08;;;;;;;2.72;0.95;;;27.10;27.20;;;;;;5003553;28;20401;-76
2021/03/24 12:58:10;;;;;;;1.00;0.85;;;27.10;27.30;;;;;;4991625;28;20037;-76
2021/03/24 13:01:03;;;;;;;1.13;0.70;;;27.10;27.30;;;;;;5011434;28;20030;-76
2021/03/24 13:03:32;;;;;;;1.02;0.68;;;27.20;27.20;;;;;;5012847;28;20034;-76
2021/03/24 13:06:01;;;;;;;0.95;0.68;;;27.20;27.30;;;;;;5012459;28;20065;-72
2021/03/24 13:08:35;;;;;;;3.58;0.82;;;27.20;27.50;;;;;;5011966;28;20032;-76
2021/03/24 13:11:27;;;;;;;1.05;0.40;;;27.20;27.40;;;;;;5006380;28;20047;-76
2021/03/24 13:14:18;;;;;;;1.23;0.65;;;27.20;27.60;;;;;;5074580;28;20027;-76
2021/03/24 13:17:02;;;;;;;1.05;0.80;;;27.30;27.10;;;;;;5086273;28;20020;-76
2021/03/24 13:19:49;;;;;;;2.03;0.85;;;27.30;26.80;;;;;;5080968;28;20024;-76
2021/03/24 13:23:01;;;;;;;2.22;0.52;;;27.40;27.70;;;;;;5071414;28;20475;-75
2021/03/24 13:25:41;;;;;;;1.50;1.15;;;27.40;27.00;;;;;;5079719;28;20024;-76
2021/03/24 13:28:13;;;;;;;3.85;1.30;;;27.50;26.70;;;;;;5083054;28;20020;-76
2021/03/24 13:30:53;;;;;;;0.90;0.57;;;27.60;26.50;;;;;;5082058;28;20023;-76
2021/03/24 13:33:34;;;;;;;1.63;0.73;;;27.60;26.70;;;;;;5080972;28;20028;-76
2021/03/24 13:36:06;;;;;;;0.55;0.55;;;27.60;26.40;;;;;;5093941;28;20036;-76
2021/03/24 13:38:48;;;;;;;1.05;0.60;;;27.70;26.20;;;;;;5062916;28;20028;-75
2021/03/24 13:41:14;;;;;;;0.88;0.65;;;27.80;26.00;;;;;;5069050;28;20039;-76
2021/03/24 13:43:42;;;;;;;0.68;0.50;;;27.80;26.40;;;;;;5036588;28;20423;-76